createdAt,value
2019-04-28T00:00:02.243Z,8.26
2019-04-28T00:01:02.233Z,8.26
2019-04-28T00:02:02.226Z,8.15
2019-04-28T00:03:02.224Z,8.11
2019-04-28T00:04:03.484Z,8.11
2019-04-28T00:05:02.193Z,8.12
2019-04-28T00:06:02.187Z,8.12
2019-04-28T00:07:02.169Z,8.17
2019-04-28T00:08:02.159Z,8.12
2019-04-28T00:09:02.161Z,8.12
2019-04-28T00:10:02.137Z,8.14
2019-04-28T00:11:02.126Z,8.18
2019-04-28T00:12:02.116Z,8.15
2019-04-28T00:13:02.106Z,8.25
2019-04-28T00:14:02.098Z,8.25
2019-04-28T00:15:02.539Z,8.18
2019-04-28T00:16:02.074Z,8.26
2019-04-28T00:17:02.067Z,8.18
2019-04-28T00:18:04.154Z,8.17
2019-04-28T00:19:02.047Z,8.25
2019-04-28T00:20:02.032Z,8.20
2019-04-28T00:21:02.031Z,8.22
2019-04-28T00:22:02.014Z,8.17
2019-04-28T00:23:04.180Z,8.25
2019-04-28T00:24:01.990Z,8.22
2019-04-28T00:25:01.991Z,8.22
2019-04-28T00:26:01.969Z,8.26
2019-04-28T00:27:02.002Z,8.26
2019-04-28T00:28:01.946Z,8.21
2019-04-28T00:29:01.935Z,8.29
2019-04-28T00:30:02.198Z,8.25
2019-04-28T00:31:02.495Z,8.22
2019-04-28T00:32:01.904Z,8.29
2019-04-28T00:33:01.906Z,8.12
2019-04-28T00:34:01.884Z,8.12
2019-04-28T00:35:02.435Z,8.10
2019-04-28T00:36:01.862Z,8.12
2019-04-28T00:37:01.850Z,8.15
2019-04-28T00:38:01.840Z,8.15
2019-04-28T00:39:01.847Z,8.15
2019-04-28T00:40:01.818Z,8.04
2019-04-28T00:41:02.415Z,8.08
2019-04-28T00:42:03.305Z,8.14
2019-04-28T00:43:01.786Z,8.08
2019-04-28T00:44:02.023Z,8.04
2019-04-28T00:45:02.050Z,8.07
2019-04-28T00:46:01.755Z,8.11
2019-04-28T00:47:01.743Z,8.04
2019-04-28T00:48:01.732Z,8.08
2019-04-28T00:49:02.212Z,8.12
2019-04-28T00:50:02.260Z,8.12
2019-04-28T00:51:01.921Z,8.11
2019-04-28T00:52:03.103Z,8.15
2019-04-28T00:53:01.868Z,8.03
2019-04-28T00:54:01.669Z,8.17
2019-04-28T00:55:01.683Z,8.07
2019-04-28T00:56:02.145Z,8.12
2019-04-28T00:57:01.649Z,8.11
2019-04-28T00:58:01.625Z,8.12
2019-04-28T00:59:01.781Z,8.14
2019-04-28T01:00:02.430Z,8.14
2019-04-28T01:01:01.595Z,8.17
2019-04-28T01:02:01.586Z,8.26
2019-04-28T01:03:02.150Z,8.10
2019-04-28T01:04:02.124Z,8.10
2019-04-28T01:05:01.895Z,8.14
2019-04-28T01:06:01.962Z,8.22
2019-04-28T01:07:01.671Z,8.20
2019-04-28T01:08:01.519Z,8.11
2019-04-28T01:09:03.805Z,8.11
2019-04-28T01:10:01.599Z,8.12
2019-04-28T01:11:01.860Z,8.14
2019-04-28T01:12:01.901Z,8.20
2019-04-28T01:13:02.092Z,8.21
2019-04-28T01:14:01.802Z,8.30
2019-04-28T01:15:04.536Z,8.21
2019-04-28T01:16:01.434Z,8.22
2019-04-28T01:17:01.423Z,8.22
2019-04-28T01:18:01.413Z,8.28
2019-04-28T01:19:01.402Z,8.28
2019-04-28T01:20:01.398Z,8.25
2019-04-28T01:21:01.390Z,8.29
2019-04-28T01:22:01.369Z,8.21
2019-04-28T01:23:01.360Z,8.25
2019-04-28T01:24:01.349Z,8.29
2019-04-28T01:25:01.340Z,8.32
2019-04-28T01:26:01.338Z,8.36
2019-04-28T01:27:01.327Z,8.26
2019-04-28T01:28:01.311Z,8.37
2019-04-28T01:29:01.296Z,8.30
2019-04-28T01:30:07.970Z,8.35
2019-04-28T01:31:02.275Z,8.35
2019-04-28T01:32:01.262Z,8.33
2019-04-28T01:33:01.264Z,8.36
2019-04-28T01:34:01.655Z,8.32
2019-04-28T01:35:01.234Z,8.33
2019-04-28T01:36:01.220Z,8.32
2019-04-28T01:37:01.213Z,8.33
2019-04-28T01:38:01.197Z,8.32
2019-04-28T01:39:01.200Z,8.36
2019-04-28T01:40:01.176Z,8.39
2019-04-28T01:41:01.595Z,8.33
2019-04-28T01:42:01.155Z,8.35
2019-04-28T01:43:01.162Z,8.40
2019-04-28T01:44:01.134Z,8.36
2019-04-28T01:45:01.135Z,8.37
2019-04-28T01:46:01.113Z,8.45
2019-04-28T01:47:01.269Z,8.44
2019-04-28T01:48:02.307Z,8.42
2019-04-28T01:49:01.080Z,8.37
2019-04-28T01:50:02.061Z,8.37
2019-04-28T01:51:01.082Z,8.42
2019-04-28T01:52:01.317Z,8.42
2019-04-28T01:53:01.045Z,8.42
2019-04-28T01:54:01.026Z,8.44
2019-04-28T01:55:01.016Z,8.45
2019-04-28T01:56:01.007Z,8.44
2019-04-28T01:57:01.545Z,8.42
2019-04-28T01:58:00.984Z,8.48
2019-04-28T01:59:00.973Z,8.48
2019-04-28T02:00:00.963Z,8.55
2019-04-28T02:01:00.954Z,8.39
2019-04-28T02:02:00.941Z,8.47
2019-04-28T02:03:02.098Z,8.48
2019-04-28T02:04:00.919Z,8.45
2019-04-28T02:05:00.909Z,8.44
2019-04-28T02:06:00.898Z,8.47
2019-04-28T02:07:00.887Z,8.48
2019-04-28T02:08:00.875Z,8.47
2019-04-28T02:09:01.031Z,8.48
2019-04-28T02:10:00.919Z,8.44
2019-04-28T02:11:00.842Z,8.48
2019-04-28T02:12:00.921Z,8.47
2019-04-28T02:13:00.823Z,8.48
2019-04-28T02:14:00.810Z,8.45
2019-04-28T02:15:01.276Z,8.45
2019-04-28T02:16:00.791Z,8.45
2019-04-28T02:17:00.777Z,8.48
2019-04-28T02:18:00.767Z,8.48
2019-04-28T02:19:00.759Z,8.47
2019-04-28T02:20:00.889Z,8.53
2019-04-28T02:21:00.747Z,8.47
2019-04-28T02:22:00.722Z,8.48
2019-04-28T02:23:00.711Z,8.45
2019-04-28T02:24:00.700Z,8.51
2019-04-28T02:25:00.702Z,8.47
2019-04-28T02:26:00.683Z,8.57
2019-04-28T02:27:01.049Z,8.63
2019-04-28T02:28:00.656Z,8.54
2019-04-28T02:29:00.649Z,8.53
2019-04-28T02:30:00.635Z,8.50
2019-04-28T02:31:02.282Z,8.47
2019-04-28T02:32:02.216Z,8.50
2019-04-28T02:33:01.702Z,8.50
2019-04-28T02:34:00.800Z,8.54
2019-04-28T02:35:01.592Z,8.51
2019-04-28T02:36:01.413Z,8.42
2019-04-28T02:37:01.622Z,8.47
2019-04-28T02:38:00.551Z,8.44
2019-04-28T02:39:00.864Z,8.48
2019-04-28T02:40:03.330Z,8.47
2019-04-28T02:41:00.517Z,8.42
2019-04-28T02:42:01.455Z,8.47
2019-04-28T02:43:01.255Z,8.47
2019-04-28T02:44:01.047Z,8.42
2019-04-28T02:45:00.763Z,8.42
2019-04-28T02:46:00.805Z,8.45
2019-04-28T02:47:00.975Z,8.44
2019-04-28T02:48:01.066Z,8.45
2019-04-28T02:49:00.957Z,8.45
2019-04-28T02:50:00.913Z,8.47
2019-04-28T02:51:01.231Z,8.45
2019-04-28T02:52:02.925Z,8.47
2019-04-28T02:53:01.715Z,8.45
2019-04-28T02:54:00.680Z,8.45
2019-04-28T02:55:03.090Z,8.45
2019-04-28T02:56:00.968Z,8.50
2019-04-28T02:57:01.298Z,8.45
2019-04-28T02:58:01.404Z,8.50
2019-04-28T02:59:01.006Z,8.45
2019-04-28T03:00:00.620Z,8.50
2019-04-28T03:01:09.682Z,8.48
2019-04-28T03:02:01.317Z,8.48
2019-04-28T03:03:01.470Z,8.50
2019-04-28T03:04:00.473Z,8.53
2019-04-28T03:05:00.565Z,8.57
2019-04-28T03:06:01.385Z,8.60
2019-04-28T03:07:01.327Z,8.50
2019-04-28T03:08:01.048Z,8.47
2019-04-28T03:09:00.413Z,8.47
2019-04-28T03:10:03.236Z,8.53
2019-04-28T03:11:01.068Z,8.45
2019-04-28T03:12:01.553Z,8.47
2019-04-28T03:13:00.987Z,8.51
2019-04-28T03:14:00.949Z,8.47
2019-04-28T03:15:00.620Z,8.47
2019-04-28T03:16:01.488Z,8.50
2019-04-28T03:17:00.869Z,8.53
2019-04-28T03:18:01.742Z,8.48
2019-04-28T03:19:01.257Z,8.45
2019-04-28T03:20:00.981Z,8.45
2019-04-28T03:21:01.693Z,8.53
2019-04-28T03:22:01.350Z,8.57
2019-04-28T03:23:00.937Z,8.51
2019-04-28T03:24:01.252Z,8.54
2019-04-28T03:25:00.874Z,8.58
2019-04-28T03:26:01.437Z,8.53
2019-04-28T03:27:00.610Z,8.53
2019-04-28T03:28:00.651Z,8.50
2019-04-28T03:29:01.014Z,8.57
2019-04-28T03:30:00.914Z,8.62
2019-04-28T03:31:06.433Z,8.55
2019-04-28T03:32:23.106Z,8.47
2019-04-28T03:33:10.988Z,8.50
2019-04-28T03:34:04.105Z,8.42
2019-04-28T03:35:03.120Z,8.50
2019-04-28T03:36:03.723Z,8.50
2019-04-28T03:37:00.910Z,8.45
2019-04-28T03:38:01.260Z,8.51
2019-04-28T03:39:00.706Z,8.51
2019-04-28T03:40:00.616Z,8.44
2019-04-28T03:41:01.009Z,8.51
2019-04-28T03:42:00.203Z,8.50
2019-04-28T03:43:02.876Z,8.45
2019-04-28T03:44:00.545Z,8.50
2019-04-28T03:45:01.068Z,8.51
2019-04-28T03:46:00.758Z,8.44
2019-04-28T03:47:00.714Z,8.50
2019-04-28T03:48:00.350Z,8.45
2019-04-28T03:49:00.809Z,8.44
2019-04-28T03:50:00.166Z,8.42
2019-04-28T03:51:00.676Z,8.42
2019-04-28T03:52:00.402Z,8.42
2019-04-28T03:53:01.066Z,8.45
2019-04-28T03:54:02.414Z,8.48
2019-04-28T03:55:00.508Z,8.50
2019-04-28T03:56:01.527Z,8.50
2019-04-28T03:57:01.304Z,8.57
2019-04-28T03:58:00.899Z,8.50
2019-04-28T03:59:00.483Z,8.50
2019-04-28T04:00:01.434Z,8.53
2019-04-28T04:01:02.683Z,8.44
2019-04-28T04:02:03.170Z,8.48
2019-04-28T04:03:00.815Z,8.48
2019-04-28T04:04:01.184Z,8.48
2019-04-28T04:05:03.293Z,8.42
2019-04-28T04:06:00.864Z,8.42
2019-04-28T04:07:01.502Z,8.44
2019-04-28T04:08:00.868Z,8.42
2019-04-28T04:09:00.325Z,8.42
2019-04-28T04:10:00.952Z,8.44
2019-04-28T04:11:00.230Z,8.44
2019-04-28T04:12:00.314Z,8.42
2019-04-28T04:13:00.885Z,8.51
2019-04-28T04:14:01.674Z,8.51
2019-04-28T04:15:00.770Z,8.50
2019-04-28T04:16:01.557Z,8.47
2019-04-28T04:17:00.125Z,8.51
2019-04-28T04:18:01.279Z,8.47
2019-04-28T04:19:00.701Z,8.45
2019-04-28T04:20:01.831Z,8.58
2019-04-28T04:21:00.773Z,8.45
2019-04-28T04:22:00.359Z,8.62
2019-04-28T04:23:01.460Z,8.44
2019-04-28T04:24:01.123Z,8.50
2019-04-28T04:25:01.254Z,8.48
2019-04-28T04:26:01.653Z,8.53
2019-04-28T04:27:00.877Z,8.48
2019-04-28T04:28:02.981Z,8.50
2019-04-28T04:29:00.954Z,8.50
2019-04-28T04:30:01.572Z,8.44
2019-04-28T04:31:02.516Z,8.39
2019-04-28T04:32:13.864Z,8.42
2019-04-28T04:33:01.269Z,8.47
2019-04-28T04:34:00.693Z,8.45
2019-04-28T04:35:00.695Z,8.50
2019-04-28T04:36:01.653Z,8.39
2019-04-28T04:37:00.746Z,8.44
2019-04-28T04:38:00.519Z,8.47
2019-04-28T04:39:01.768Z,8.45
2019-04-28T04:40:01.375Z,8.48
2019-04-28T04:41:01.553Z,8.40
2019-04-28T04:42:00.648Z,8.42
2019-04-28T04:43:01.521Z,8.45
2019-04-28T04:44:01.137Z,8.48
2019-04-28T04:45:00.507Z,8.42
2019-04-28T04:46:01.426Z,8.50
2019-04-28T04:47:00.988Z,8.44
2019-04-28T04:48:00.654Z,8.47
2019-04-28T04:49:00.716Z,8.37
2019-04-28T04:50:00.285Z,8.50
2019-04-28T04:51:00.759Z,8.45
2019-04-28T04:52:00.392Z,8.44
2019-04-28T04:52:59.088Z,8.48
2019-04-28T04:54:01.073Z,8.51
2019-04-28T04:55:01.288Z,8.45
2019-04-28T04:56:00.359Z,8.47
2019-04-28T04:57:00.065Z,8.47
2019-04-28T04:58:00.789Z,8.51
2019-04-28T04:59:02.196Z,8.53
2019-04-28T04:59:59.981Z,8.48
2019-04-28T05:01:00.794Z,8.53
2019-04-28T05:02:01.710Z,8.55
2019-04-28T05:03:00.850Z,8.55
2019-04-28T05:03:59.626Z,8.50
2019-04-28T05:05:00.415Z,8.55
2019-04-28T05:06:00.138Z,8.53
2019-04-28T05:06:59.715Z,8.57
2019-04-28T05:08:00.324Z,8.55
2019-04-28T05:08:59.925Z,8.62
2019-04-28T05:09:59.499Z,8.48
2019-04-28T05:11:00.036Z,8.55
2019-04-28T05:11:59.753Z,8.55
2019-04-28T05:13:00.229Z,8.58
2019-04-28T05:13:59.686Z,8.58
2019-04-28T05:15:00.492Z,8.60
2019-04-28T05:15:59.849Z,8.65
2019-04-28T05:17:00.676Z,8.68
2019-04-28T05:18:00.226Z,8.58
2019-04-28T05:19:00.106Z,8.68
2019-04-28T05:19:59.710Z,8.63
2019-04-28T05:20:59.500Z,8.57
2019-04-28T05:22:00.029Z,8.72
2019-04-28T05:23:00.263Z,8.55
2019-04-28T05:23:59.637Z,8.58
2019-04-28T05:25:00.062Z,8.63
2019-04-28T05:26:01.493Z,8.68
2019-04-28T05:26:59.733Z,8.60
2019-04-28T05:28:02.683Z,8.60
2019-04-28T05:28:59.528Z,8.73
2019-04-28T05:30:02.450Z,8.68
2019-04-28T05:31:00.100Z,8.71
2019-04-28T05:31:59.893Z,8.69
2019-04-28T05:33:00.262Z,8.68
2019-04-28T05:34:00.019Z,8.79
2019-04-28T05:35:00.153Z,8.79
2019-04-28T05:36:02.609Z,8.75
2019-04-28T05:37:00.542Z,8.75
2019-04-28T05:37:59.751Z,8.72
2019-04-28T05:39:00.141Z,8.90
2019-04-28T05:40:00.638Z,8.83
2019-04-28T05:41:02.318Z,8.76
2019-04-28T05:42:00.646Z,8.84
2019-04-28T05:43:00.525Z,8.75
2019-04-28T05:43:59.603Z,8.84
2019-04-28T05:44:59.920Z,8.76
2019-04-28T05:46:00.175Z,8.79
2019-04-28T05:46:59.546Z,8.83
2019-04-28T05:47:59.433Z,8.81
2019-04-28T05:48:59.974Z,8.83
2019-04-28T05:49:59.893Z,8.76
2019-04-28T05:50:59.937Z,8.91
2019-04-28T05:51:58.444Z,8.88
2019-04-28T05:53:00.399Z,8.88
2019-04-28T05:53:59.501Z,8.90
2019-04-28T05:54:59.796Z,8.94
2019-04-28T05:56:00.074Z,8.91
2019-04-28T05:56:59.741Z,9.01
2019-04-28T05:57:59.936Z,9.13
2019-04-28T05:59:00.511Z,9.05
2019-04-28T06:00:00.984Z,9.12
2019-04-28T06:01:00.106Z,9.10
2019-04-28T06:02:00.499Z,9.15
2019-04-28T06:02:58.327Z,9.18
2019-04-28T06:03:58.315Z,9.12
2019-04-28T06:04:59.926Z,9.21
2019-04-28T06:05:59.977Z,9.20
2019-04-28T06:06:59.759Z,9.20
2019-04-28T06:07:59.619Z,9.27
2019-04-28T06:08:59.819Z,9.18
2019-04-28T06:10:00.053Z,9.35
2019-04-28T06:10:59.890Z,9.35
2019-04-28T06:12:00.025Z,9.35
2019-04-28T06:12:59.767Z,9.38
2019-04-28T06:13:59.929Z,9.46
2019-04-28T06:15:00.035Z,9.46
2019-04-28T06:15:59.887Z,9.57
2019-04-28T06:16:58.174Z,9.57
2019-04-28T06:18:00.000Z,9.71
2019-04-28T06:18:59.978Z,9.78
2019-04-28T06:20:00.061Z,9.88
2019-04-28T06:20:58.129Z,10.10
2019-04-28T06:21:58.118Z,10.15
2019-04-28T06:22:58.108Z,10.22
2019-04-28T06:23:58.098Z,10.25
2019-04-28T06:24:58.108Z,10.17
2019-04-28T06:25:58.086Z,10.17
2019-04-28T06:26:58.101Z,10.25
2019-04-28T06:27:58.054Z,10.21
2019-04-28T06:28:58.048Z,10.18
2019-04-28T06:29:58.033Z,10.10
2019-04-28T06:30:58.032Z,10.14
2019-04-28T06:31:58.084Z,10.22
2019-04-28T06:33:07.733Z,10.18
2019-04-28T06:33:58.990Z,10.22
2019-04-28T06:34:57.978Z,10.24
2019-04-28T06:35:58.016Z,10.26
2019-04-28T06:36:57.966Z,10.32
2019-04-28T06:37:57.946Z,10.19
2019-04-28T06:38:57.934Z,10.28
2019-04-28T06:39:57.923Z,10.26
2019-04-28T06:40:57.912Z,10.32
2019-04-28T06:41:57.901Z,10.32
2019-04-28T06:42:57.907Z,10.43
2019-04-28T06:43:57.878Z,10.47
2019-04-28T06:44:57.868Z,10.55
2019-04-28T06:45:57.857Z,10.55
2019-04-28T06:46:57.849Z,10.60
2019-04-28T06:47:57.835Z,10.70
2019-04-28T06:48:57.834Z,10.62
2019-04-28T06:49:57.813Z,10.62
2019-04-28T06:50:57.803Z,10.73
2019-04-28T06:51:57.791Z,10.71
2019-04-28T06:52:57.782Z,10.63
2019-04-28T06:53:57.770Z,10.66
2019-04-28T06:54:57.774Z,10.66
2019-04-28T06:55:57.749Z,10.70
2019-04-28T06:56:57.742Z,10.71
2019-04-28T06:57:57.728Z,10.74
2019-04-28T06:58:59.252Z,10.71
2019-04-28T06:59:57.706Z,10.80
2019-04-28T07:00:57.728Z,10.89
2019-04-28T07:01:57.684Z,11.01
2019-04-28T07:02:57.674Z,11.06
2019-04-28T07:03:57.664Z,11.11
2019-04-28T07:05:02.260Z,11.11
2019-04-28T07:05:57.643Z,11.06
2019-04-28T07:06:57.642Z,11.01
2019-04-28T07:07:57.620Z,11.09
2019-04-28T07:08:57.612Z,11.24
2019-04-28T07:09:57.597Z,11.27
2019-04-28T07:10:57.586Z,11.32
2019-04-28T07:11:57.576Z,11.36
2019-04-28T07:12:57.574Z,11.39
2019-04-28T07:13:57.554Z,11.38
2019-04-28T07:14:57.541Z,11.50
2019-04-28T07:15:57.536Z,11.57
2019-04-28T07:16:57.519Z,11.43
2019-04-28T07:17:57.509Z,11.50
2019-04-28T07:18:57.513Z,11.56
2019-04-28T07:19:57.489Z,11.71
2019-04-28T07:20:57.478Z,11.68
2019-04-28T07:21:57.466Z,11.72
2019-04-28T07:22:57.457Z,11.70
2019-04-28T07:23:57.444Z,11.71
2019-04-28T07:24:57.451Z,11.65
2019-04-28T07:25:57.426Z,11.62
2019-04-28T07:26:57.412Z,11.65
2019-04-28T07:27:57.401Z,11.67
2019-04-28T07:28:57.390Z,11.78
2019-04-28T07:29:57.381Z,11.80
2019-04-28T07:30:57.378Z,11.85
2019-04-28T07:31:57.357Z,11.89
2019-04-28T07:32:57.349Z,11.80
2019-04-28T07:33:57.335Z,11.82
2019-04-28T07:34:57.324Z,11.70
2019-04-28T07:35:57.312Z,11.85
2019-04-28T07:36:57.329Z,11.99
2019-04-28T07:37:57.290Z,12.11
2019-04-28T07:38:57.280Z,11.77
2019-04-28T07:39:57.270Z,11.85
2019-04-28T07:40:57.259Z,11.78
2019-04-28T07:41:57.248Z,11.68
2019-04-28T07:42:57.267Z,11.72
2019-04-28T07:43:57.225Z,11.71
2019-04-28T07:44:57.216Z,11.67
2019-04-28T07:45:57.214Z,11.78
2019-04-28T07:46:57.195Z,11.74
2019-04-28T07:47:57.183Z,11.71
2019-04-28T07:48:57.183Z,11.75
2019-04-28T07:49:57.161Z,11.77
2019-04-28T07:50:57.156Z,11.85
2019-04-28T07:51:57.142Z,11.75
2019-04-28T07:52:57.128Z,11.65
2019-04-28T07:53:57.117Z,11.71
2019-04-28T07:54:57.115Z,11.67
2019-04-28T07:55:57.095Z,11.62
2019-04-28T07:56:57.083Z,11.59
2019-04-28T07:57:57.073Z,11.54
2019-04-28T07:58:57.061Z,11.57
2019-04-28T07:59:57.051Z,11.59
2019-04-28T08:00:57.050Z,11.59
2019-04-28T08:01:57.028Z,11.70
2019-04-28T08:02:57.019Z,11.74
2019-04-28T08:03:57.589Z,11.72
2019-04-28T08:04:56.999Z,11.78
2019-04-28T08:05:57.080Z,11.86
2019-04-28T08:06:56.983Z,11.93
2019-04-28T08:07:56.962Z,11.85
2019-04-28T08:08:56.950Z,11.86
2019-04-28T08:09:56.940Z,11.86
2019-04-28T08:10:56.933Z,11.70
2019-04-28T08:11:56.917Z,11.71
2019-04-28T08:12:56.919Z,11.74
2019-04-28T08:13:56.894Z,11.71
2019-04-28T08:14:56.885Z,11.68
2019-04-28T08:15:56.873Z,11.65
2019-04-28T08:16:56.864Z,11.65
2019-04-28T08:17:56.852Z,11.71
2019-04-28T08:18:56.851Z,11.74
2019-04-28T08:19:56.830Z,11.86
2019-04-28T08:20:56.817Z,11.86
2019-04-28T08:21:56.812Z,11.83
2019-04-28T08:22:56.794Z,11.83
2019-04-28T08:23:56.794Z,11.75
2019-04-28T08:24:56.783Z,11.93
2019-04-28T08:25:56.763Z,12.01
2019-04-28T08:26:56.750Z,12.11
2019-04-28T08:27:56.743Z,12.15
2019-04-28T08:28:56.728Z,12.13
2019-04-28T08:29:58.606Z,12.04
2019-04-28T08:30:56.721Z,11.99
2019-04-28T08:31:56.695Z,11.93
2019-04-28T08:32:56.685Z,11.78
2019-04-28T08:34:02.699Z,11.83
2019-04-28T08:34:57.660Z,11.72
2019-04-28T08:35:56.651Z,11.70
2019-04-28T08:36:56.650Z,11.68
2019-04-28T08:37:56.635Z,11.68
2019-04-28T08:38:56.622Z,11.74
2019-04-28T08:39:56.607Z,11.80
2019-04-28T08:40:56.596Z,11.86
2019-04-28T08:41:56.585Z,11.89
2019-04-28T08:42:56.586Z,11.83
2019-04-28T08:43:56.568Z,11.85
2019-04-28T08:44:56.552Z,11.96
2019-04-28T08:45:56.541Z,11.90
2019-04-28T08:46:56.530Z,12.02
2019-04-28T08:47:58.007Z,12.02
2019-04-28T08:48:56.529Z,12.04
2019-04-28T08:49:56.500Z,12.04
2019-04-28T08:50:56.486Z,11.82
2019-04-28T08:51:56.483Z,11.89
2019-04-28T08:52:56.465Z,11.87
2019-04-28T08:53:56.453Z,11.94
2019-04-28T08:54:56.453Z,12.02
2019-04-28T08:55:56.431Z,12.11
2019-04-28T08:56:56.420Z,12.23
2019-04-28T08:57:56.410Z,12.30
2019-04-28T08:58:56.397Z,12.38
2019-04-28T08:59:56.387Z,12.52
2019-04-28T09:00:56.389Z,12.63
2019-04-28T09:01:56.365Z,12.78
2019-04-28T09:02:56.354Z,12.84
2019-04-28T09:03:56.343Z,12.92
2019-04-28T09:04:56.332Z,12.89
2019-04-28T09:05:56.321Z,12.87
2019-04-28T09:06:56.323Z,12.82
2019-04-28T09:07:56.301Z,12.84
2019-04-28T09:08:56.293Z,12.85
2019-04-28T09:09:56.278Z,12.67
2019-04-28T09:10:56.270Z,12.75
2019-04-28T09:11:56.259Z,12.62
2019-04-28T09:12:56.257Z,12.59
2019-04-28T09:13:56.245Z,12.66
2019-04-28T09:14:56.225Z,12.57
2019-04-28T09:15:56.214Z,12.54
2019-04-28T09:16:56.204Z,12.49
2019-04-28T09:17:56.193Z,12.51
2019-04-28T09:18:56.194Z,12.51
2019-04-28T09:19:56.185Z,12.52
2019-04-28T09:20:56.161Z,12.62
2019-04-28T09:21:56.152Z,12.75
2019-04-28T09:22:56.141Z,12.79
2019-04-28T09:23:56.129Z,12.70
2019-04-28T09:24:56.131Z,12.79
2019-04-28T09:25:56.113Z,12.89
2019-04-28T09:26:56.102Z,12.87
2019-04-28T09:27:56.090Z,12.81
2019-04-28T09:28:56.081Z,12.87
2019-04-28T09:29:56.063Z,12.85
2019-04-28T09:30:56.063Z,12.87
2019-04-28T09:31:56.042Z,12.82
2019-04-28T09:32:56.032Z,12.78
2019-04-28T09:33:56.022Z,12.71
2019-04-28T09:34:56.010Z,12.82
2019-04-28T09:35:56.002Z,12.69
2019-04-28T09:36:56.000Z,12.70
2019-04-28T09:37:55.978Z,12.67
2019-04-28T09:38:55.972Z,12.63
2019-04-28T09:39:55.957Z,12.62
2019-04-28T09:40:55.946Z,12.60
2019-04-28T09:41:55.936Z,12.52
2019-04-28T09:42:55.934Z,12.54
2019-04-28T09:43:55.912Z,12.51
2019-04-28T09:44:55.900Z,12.57
2019-04-28T09:45:55.890Z,12.70
2019-04-28T09:46:55.945Z,12.75
2019-04-28T09:47:55.868Z,12.84
2019-04-28T09:48:55.875Z,12.81
2019-04-28T09:49:55.847Z,12.87
2019-04-28T09:50:55.834Z,12.88
2019-04-28T09:51:55.824Z,12.93
2019-04-28T09:52:55.814Z,12.88
2019-04-28T09:53:55.802Z,13.02
2019-04-28T09:54:55.808Z,12.97
2019-04-28T09:55:55.781Z,13.11
2019-04-28T09:56:57.086Z,13.09
2019-04-28T09:57:55.760Z,13.06
2019-04-28T09:58:55.749Z,13.18
2019-04-28T09:59:55.739Z,13.14
2019-04-28T10:00:55.740Z,13.20
2019-04-28T10:01:55.721Z,13.21
2019-04-28T10:02:55.709Z,13.20
2019-04-28T10:03:55.697Z,13.29
2019-04-28T10:04:55.685Z,13.24
2019-04-28T10:05:55.675Z,13.29
2019-04-28T10:06:55.675Z,13.22
2019-04-28T10:07:55.653Z,13.27
2019-04-28T10:08:55.643Z,13.20
2019-04-28T10:09:55.649Z,13.20
2019-04-28T10:10:55.621Z,13.14
2019-04-28T10:11:55.610Z,13.21
2019-04-28T10:12:55.612Z,13.24
2019-04-28T10:13:57.081Z,13.21
2019-04-28T10:14:55.578Z,13.21
2019-04-28T10:15:55.567Z,13.20
2019-04-28T10:16:55.556Z,13.17
2019-04-28T10:17:55.546Z,13.20
2019-04-28T10:18:55.546Z,13.14
2019-04-28T10:19:55.527Z,13.17
2019-04-28T10:20:55.516Z,13.20
2019-04-28T10:21:55.503Z,13.20
2019-04-28T10:22:55.493Z,13.21
2019-04-28T10:23:55.482Z,13.29
2019-04-28T10:24:55.481Z,13.27
2019-04-28T10:25:55.461Z,13.33
2019-04-28T10:26:55.449Z,13.32
2019-04-28T10:27:55.439Z,13.24
2019-04-28T10:28:55.433Z,13.29
2019-04-28T10:29:55.432Z,13.30
2019-04-28T10:30:55.423Z,13.46
2019-04-28T10:31:55.399Z,13.43
2019-04-28T10:32:55.386Z,13.46
2019-04-28T10:33:55.373Z,13.56
2019-04-28T10:34:55.489Z,13.62
2019-04-28T10:35:55.351Z,13.63
2019-04-28T10:36:55.351Z,13.63
2019-04-28T10:37:55.330Z,13.67
2019-04-28T10:38:55.321Z,13.63
2019-04-28T10:39:55.308Z,13.56
2019-04-28T10:40:55.297Z,13.52
2019-04-28T10:41:55.287Z,13.54
2019-04-28T10:42:55.289Z,13.52
2019-04-28T10:43:55.291Z,13.51
2019-04-28T10:44:55.259Z,13.51
2019-04-28T10:45:55.243Z,13.36
2019-04-28T10:46:55.232Z,13.37
2019-04-28T10:47:55.223Z,13.46
2019-04-28T10:48:55.223Z,13.36
2019-04-28T10:49:55.203Z,13.38
2019-04-28T10:50:55.190Z,13.40
2019-04-28T10:51:59.529Z,13.43
2019-04-28T10:52:55.169Z,13.44
2019-04-28T10:53:55.158Z,13.40
2019-04-28T10:54:55.159Z,13.37
2019-04-28T10:55:55.136Z,13.38
2019-04-28T10:56:55.127Z,13.36
2019-04-28T10:57:55.115Z,13.43
2019-04-28T10:58:55.108Z,13.32
2019-04-28T10:59:55.094Z,13.36
2019-04-28T11:00:55.101Z,13.37
2019-04-28T11:01:55.072Z,13.47
2019-04-28T11:02:55.061Z,13.49
2019-04-28T11:03:55.050Z,13.44
2019-04-28T11:05:07.479Z,13.46
2019-04-28T11:05:56.046Z,13.38
2019-04-28T11:06:55.018Z,13.52
2019-04-28T11:07:55.011Z,13.46
2019-04-28T11:08:54.995Z,13.56
2019-04-28T11:09:54.984Z,13.51
2019-04-28T11:10:54.974Z,13.49
2019-04-28T11:11:54.977Z,13.51
2019-04-28T11:12:54.953Z,13.52
2019-04-28T11:13:54.948Z,13.52
2019-04-28T11:14:54.931Z,13.40
2019-04-28T11:15:54.936Z,13.12
2019-04-28T11:16:54.909Z,13.02
2019-04-28T11:17:54.911Z,12.74
2019-04-28T11:18:54.889Z,12.54
2019-04-28T11:19:54.884Z,12.44
2019-04-28T11:20:54.872Z,12.29
2019-04-28T11:21:54.855Z,12.13
2019-04-28T11:22:54.844Z,12.08
2019-04-28T11:23:54.845Z,11.89
2019-04-28T11:24:54.826Z,11.77
2019-04-28T11:25:54.817Z,11.83
2019-04-28T11:26:54.802Z,11.78
2019-04-28T11:27:55.551Z,11.74
2019-04-28T11:28:54.781Z,11.70
2019-04-28T11:29:54.782Z,11.68
2019-04-28T11:30:54.758Z,11.68
2019-04-28T11:31:54.748Z,11.65
2019-04-28T11:32:54.735Z,11.67
2019-04-28T11:33:54.724Z,11.70
2019-04-28T11:34:54.713Z,11.53
2019-04-28T11:35:54.714Z,11.52
2019-04-28T11:36:54.692Z,11.49
2019-04-28T11:37:54.680Z,11.57
2019-04-28T11:38:54.675Z,11.56
2019-04-28T11:39:54.658Z,11.53
2019-04-28T11:40:54.648Z,11.54
2019-04-28T11:41:54.666Z,11.65
2019-04-28T11:42:54.643Z,11.64
2019-04-28T11:43:54.615Z,11.70
2019-04-28T11:44:54.605Z,11.72
2019-04-28T11:45:54.594Z,11.77
2019-04-28T11:46:54.587Z,11.86
2019-04-28T11:47:54.613Z,11.86
2019-04-28T11:48:54.563Z,11.96
2019-04-28T11:49:54.552Z,12.01
2019-04-28T11:50:54.541Z,11.99
2019-04-28T11:51:54.530Z,12.01
2019-04-28T11:52:54.520Z,12.11
2019-04-28T11:53:54.521Z,12.19
2019-04-28T11:54:54.496Z,12.21
2019-04-28T11:55:54.502Z,12.26
2019-04-28T11:56:54.475Z,12.33
2019-04-28T11:57:54.467Z,12.42
2019-04-28T11:58:54.452Z,12.41
2019-04-28T11:59:54.456Z,12.51
2019-04-28T12:00:54.431Z,12.60
2019-04-28T12:01:54.420Z,12.67
2019-04-28T12:02:54.428Z,12.64
2019-04-28T12:03:54.407Z,12.63
2019-04-28T12:04:54.391Z,12.59
2019-04-28T12:05:54.394Z,12.64
2019-04-28T12:06:54.371Z,12.74
2019-04-28T12:07:54.356Z,12.78
2019-04-28T12:08:54.350Z,12.82
2019-04-28T12:10:04.875Z,12.78
2019-04-28T12:10:55.349Z,12.84
2019-04-28T12:11:54.313Z,12.67
2019-04-28T12:12:54.303Z,12.81
2019-04-28T12:13:54.303Z,12.84
2019-04-28T12:14:54.283Z,12.71
2019-04-28T12:15:54.279Z,12.79
2019-04-28T12:16:54.276Z,12.69
2019-04-28T12:17:54.246Z,12.70
2019-04-28T12:18:54.234Z,12.70
2019-04-28T12:19:54.224Z,12.77
2019-04-28T12:20:54.214Z,12.70
2019-04-28T12:21:54.202Z,12.79
2019-04-28T12:22:54.231Z,12.79
2019-04-28T12:23:54.182Z,12.82
2019-04-28T12:24:54.168Z,12.85
2019-04-28T12:25:54.160Z,12.85
2019-04-28T12:26:54.145Z,13.02
2019-04-28T12:27:54.135Z,13.06
2019-04-28T12:28:54.154Z,13.17
2019-04-28T12:29:54.113Z,13.27
2019-04-28T12:30:54.106Z,13.37
2019-04-28T12:31:54.100Z,13.46
2019-04-28T12:32:54.084Z,13.44
2019-04-28T12:33:54.069Z,13.46
2019-04-28T12:34:54.071Z,13.55
2019-04-28T12:35:54.047Z,13.46
2019-04-28T12:36:54.038Z,13.44
2019-04-28T12:37:54.026Z,13.49
2019-04-28T12:38:54.018Z,13.47
2019-04-28T12:39:54.004Z,13.58
2019-04-28T12:40:54.005Z,13.61
2019-04-28T12:41:53.985Z,13.73
2019-04-28T12:42:53.973Z,13.79
2019-04-28T12:43:53.961Z,13.92
2019-04-28T12:44:53.953Z,13.83
2019-04-28T12:45:53.940Z,13.99
2019-04-28T12:46:53.963Z,13.99
2019-04-28T12:47:53.918Z,14.02
2019-04-28T12:48:53.908Z,14.12
2019-04-28T12:49:53.898Z,14.10
2019-04-28T12:50:53.891Z,14.14
2019-04-28T12:51:53.875Z,14.34
2019-04-28T12:52:53.924Z,14.21
2019-04-28T12:53:53.852Z,14.37
2019-04-28T12:54:53.881Z,14.37
2019-04-28T12:55:53.846Z,14.43
2019-04-28T12:56:53.820Z,14.60
2019-04-28T12:57:53.809Z,14.52
2019-04-28T12:58:53.809Z,14.61
2019-04-28T12:59:53.791Z,14.64
2019-04-28T13:00:53.776Z,14.57
2019-04-28T13:01:53.765Z,14.62
2019-04-28T13:02:53.754Z,14.64
2019-04-28T13:03:53.743Z,14.67